OIIE/IKA METAR and TAF weather

Enter ICAO airport designator
Station Type Date Time Source
OIIE METAR 2019/06/18 13:00 UTC NOAA

OIIE 181300Z 02006KT 9999 FEW100 39/02 Q1006


Station Type Date Time Source
OIIE Decoded METAR 2019/06/18 13:00 UTC NOAA

Station name not available
Jun 18, 2019 - 09:00 AM EDT / 2019.06.18 1300 UTC
Wind: from the NNE (020 degrees) at 7 MPH (6 KT):0
Visibility: greater than 7 mile(s):0
Sky conditions: mostly clear
Temperature: 102 F (39 C)
Dew Point: 35 F (2 C)
Relative Humidity: 10%
Pressure (altimeter): 29.71 in. Hg (1006 hPa)
ob: OIIE 181300Z 02006KT 9999 FEW100 39/02 Q1006
cycle: 13

Station Type Date Time Source
OIIE TAF 2019/06/18 12:00 UTC NOAA

TAF OIIE 181130Z 1812/1918 30008KT 8000 FEW040
TEMPO 1900/1906 30018KT
TEMPO 1909/1916 FEW035CB SCT100

Example: see airport list